sensor_id;sensor_type;location;lat;lon;timestamp;temperature;humidity
5055;DHT22;13829;48.990;8.346;2023-08-30T00:01:08;15.40;99.90
5055;DHT22;13829;48.990;8.346;2023-08-30T00:03:36;15.50;99.90
5055;DHT22;13829;48.990;8.346;2023-08-30T00:06:03;15.50;99.90
5055;DHT22;13829;48.990;8.346;2023-08-30T00:08:31;15.40;99.90
5055;DHT22;13829;48.990;8.346;2023-08-30T00:10:58;15.40;99.90
5055;DHT22;13829;48.990;8.346;2023-08-30T00:13:25;15.30;99.90
5055;DHT22;13829;48.990;8.346;2023-08-30T00:15:52;15.30;99.90
5055;DHT22;13829;48.990;8.346;2023-08-30T00:18:19;15.20;99.90
5055;DHT22;13829;48.990;8.346;2023-08-30T00:20:47;15.20;99.90
5055;DHT22;13829;48.990;8.346;2023-08-30T00:23:14;15.20;99.90
5055;DHT22;13829;48.990;8.346;2023-08-30T00:25:42;15.20;99.90
5055;DHT22;13829;48.990;8.346;2023-08-30T00:28:09;15.20;99.90
5055;DHT22;13829;48.990;8.346;2023-08-30T00:30:36;15.10;99.90
5055;DHT22;13829;48.990;8.346;2023-08-30T00:33:03;15.10;99.90
5055;DHT22;13829;48.990;8.346;2023-08-30T00:35:30;15.20;99.90
5055;DHT22;13829;48.990;8.346;2023-08-30T00:37:59;15.10;99.90
5055;DHT22;13829;48.990;8.346;2023-08-30T00:40:26;15.20;99.90
5055;DHT22;13829;48.990;8.346;2023-08-30T00:42:56;15.20;99.90
5055;DHT22;13829;48.990;8.346;2023-08-30T00:45:23;15.20;99.90
5055;DHT22;13829;48.990;8.346;2023-08-30T00:47:51;15.20;99.90
5055;DHT22;13829;48.990;8.346;2023-08-30T00:50:18;15.20;99.90
5055;DHT22;13829;48.990;8.346;2023-08-30T00:52:46;15.30;99.90
5055;DHT22;13829;48.990;8.346;2023-08-30T00:55:14;15.30;99.90
5055;DHT22;13829;48.990;8.346;2023-08-30T00:57:41;15.40;99.90
5055;DHT22;13829;48.990;8.346;2023-08-30T01:00:09;15.40;99.90
5055;DHT22;13829;48.990;8.346;2023-08-30T01:02:38;15.40;99.90
5055;DHT22;13829;48.990;8.346;2023-08-30T01:05:05;15.40;99.90
5055;DHT22;13829;48.990;8.346;2023-08-30T01:07:32;15.40;99.90
5055;DHT22;13829;48.990;8.346;2023-08-30T01:09:59;15.40;99.90
5055;DHT22;13829;48.990;8.346;2023-08-30T01:12:31;15.40;99.90
5055;DHT22;13829;48.990;8.346;2023-08-30T01:15:09;15.40;99.90
5055;DHT22;13829;48.990;8.346;2023-08-30T01:17:39;15.50;99.90
5055;DHT22;13829;48.990;8.346;2023-08-30T01:20:09;15.40;99.90
5055;DHT22;13829;48.990;8.346;2023-08-30T01:22:45;15.50;99.90
5055;DHT22;13829;48.990;8.346;2023-08-30T01:25:31;15.50;99.90
5055;DHT22;13829;48.990;8.346;2023-08-30T01:28:06;15.50;99.90
5055;DHT22;13829;48.990;8.346;2023-08-30T01:30:36;15.50;99.90
5055;DHT22;13829;48.990;8.346;2023-08-30T01:33:07;15.50;99.90
5055;DHT22;13829;48.990;8.346;2023-08-30T01:35:35;15.50;99.90
5055;DHT22;13829;48.990;8.346;2023-08-30T01:38:06;15.50;99.90
5055;DHT22;13829;48.990;8.346;2023-08-30T01:40:36;15.60;99.90
5055;DHT22;13829;48.990;8.346;2023-08-30T01:43:08;15.60;99.90
5055;DHT22;13829;48.990;8.346;2023-08-30T01:45:38;15.60;99.90
5055;DHT22;13829;48.990;8.346;2023-08-30T01:48:09;15.60;99.90
5055;DHT22;13829;48.990;8.346;2023-08-30T01:50:39;15.60;99.90
5055;DHT22;13829;48.990;8.346;2023-08-30T01:53:08;15.60;99.90
5055;DHT22;13829;48.990;8.346;2023-08-30T01:55:37;15.60;99.90
5055;DHT22;13829;48.990;8.346;2023-08-30T01:58:07;15.60;99.90
5055;DHT22;13829;48.990;8.346;2023-08-30T02:00:35;15.60;99.90
5055;DHT22;13829;48.990;8.346;2023-08-30T02:03:08;15.70;99.90
5055;DHT22;13829;48.990;8.346;2023-08-30T02:05:38;15.70;99.90
5055;DHT22;13829;48.990;8.346;2023-08-30T02:08:13;15.60;99.90
5055;DHT22;13829;48.990;8.346;2023-08-30T02:10:48;15.60;99.90
5055;DHT22;13829;48.990;8.346;2023-08-30T02:13:27;15.60;99.90
5055;DHT22;13829;48.990;8.346;2023-08-30T02:16:00;15.60;99.90
5055;DHT22;13829;48.990;8.346;2023-08-30T02:18:27;15.60;99.90
5055;DHT22;13829;48.990;8.346;2023-08-30T02:20:55;15.50;99.90
5055;DHT22;13829;48.990;8.346;2023-08-30T02:23:23;15.70;99.90
5055;DHT22;13829;48.990;8.346;2023-08-30T02:25:51;15.70;99.90
5055;DHT22;13829;48.990;8.346;2023-08-30T02:28:18;15.70;99.90
5055;DHT22;13829;48.990;8.346;2023-08-30T02:30:46;15.70;99.90
5055;DHT22;13829;48.990;8.346;2023-08-30T02:33:13;15.60;99.90
5055;DHT22;13829;48.990;8.346;2023-08-30T02:35:40;15.60;99.90
5055;DHT22;13829;48.990;8.346;2023-08-30T02:38:07;15.60;99.90
5055;DHT22;13829;48.990;8.346;2023-08-30T02:40:34;15.60;99.90
5055;DHT22;13829;48.990;8.346;2023-08-30T02:43:00;15.60;99.90
5055;DHT22;13829;48.990;8.346;2023-08-30T02:45:28;15.60;99.90
5055;DHT22;13829;48.990;8.346;2023-08-30T02:47:56;15.60;99.90
5055;DHT22;13829;48.990;8.346;2023-08-30T02:50:23;15.60;99.90
5055;DHT22;13829;48.990;8.346;2023-08-30T02:52:50;15.60;99.90
5055;DHT22;13829;48.990;8.346;2023-08-30T02:55:17;15.60;99.90
5055;DHT22;13829;48.990;8.346;2023-08-30T02:57:44;15.60;99.90
5055;DHT22;13829;48.990;8.346;2023-08-30T03:00:13;15.60;99.90
5055;DHT22;13829;48.990;8.346;2023-08-30T03:02:41;15.60;99.90
5055;DHT22;13829;48.990;8.346;2023-08-30T03:05:09;15.60;99.90
5055;DHT22;13829;48.990;8.346;2023-08-30T03:07:37;15.60;99.90
5055;DHT22;13829;48.990;8.346;2023-08-30T03:10:05;15.60;99.90
5055;DHT22;13829;48.990;8.346;2023-08-30T03:12:32;15.60;99.90
5055;DHT22;13829;48.990;8.346;2023-08-30T03:14:59;15.60;99.90
5055;DHT22;13829;48.990;8.346;2023-08-30T03:17:26;15.50;99.90
5055;DHT22;13829;48.990;8.346;2023-08-30T03:19:53;15.60;99.90
5055;DHT22;13829;48.990;8.346;2023-08-30T03:22:21;15.60;99.90
5055;DHT22;13829;48.990;8.346;2023-08-30T03:24:49;15.60;99.90
5055;DHT22;13829;48.990;8.346;2023-08-30T03:27:16;15.60;99.90
5055;DHT22;13829;48.990;8.346;2023-08-30T03:29:45;15.60;99.90
5055;DHT22;13829;48.990;8.346;2023-08-30T03:32:15;15.60;99.90
5055;DHT22;13829;48.990;8.346;2023-08-30T03:34:44;15.60;99.90
5055;DHT22;13829;48.990;8.346;2023-08-30T03:37:11;15.50;99.90
5055;DHT22;13829;48.990;8.346;2023-08-30T03:39:40;15.50;99.90
5055;DHT22;13829;48.990;8.346;2023-08-30T03:42:07;15.50;99.90
5055;DHT22;13829;48.990;8.346;2023-08-30T03:44:34;15.50;99.90
5055;DHT22;13829;48.990;8.346;2023-08-30T03:47:01;15.40;99.90
5055;DHT22;13829;48.990;8.346;2023-08-30T03:49:28;15.40;99.90
5055;DHT22;13829;48.990;8.346;2023-08-30T03:51:55;15.40;99.90
5055;DHT22;13829;48.990;8.346;2023-08-30T03:54:22;15.40;99.90
5055;DHT22;13829;48.990;8.346;2023-08-30T03:56:50;15.40;99.90
5055;DHT22;13829;48.990;8.346;2023-08-30T03:59:17;15.50;99.90
5055;DHT22;13829;48.990;8.346;2023-08-30T04:01:44;15.40;99.90
5055;DHT22;13829;48.990;8.346;2023-08-30T04:04:11;15.40;99.90
5055;DHT22;13829;48.990;8.346;2023-08-30T04:06:38;15.50;99.90
5055;DHT22;13829;48.990;8.346;2023-08-30T04:09:05;15.50;99.90
5055;DHT22;13829;48.990;8.346;2023-08-30T04:11:33;15.50;99.90
5055;DHT22;13829;48.990;8.346;2023-08-30T04:14:01;15.50;99.90
5055;DHT22;13829;48.990;8.346;2023-08-30T04:16:29;15.50;99.90
5055;DHT22;13829;48.990;8.346;2023-08-30T04:18:56;15.50;99.90
5055;DHT22;13829;48.990;8.346;2023-08-30T04:21:23;15.50;99.90
5055;DHT22;13829;48.990;8.346;2023-08-30T04:23:50;15.40;99.90
5055;DHT22;13829;48.990;8.346;2023-08-30T04:26:17;15.40;99.90
5055;DHT22;13829;48.990;8.346;2023-08-30T04:28:44;15.40;99.90
5055;DHT22;13829;48.990;8.346;2023-08-30T04:31:12;15.40;99.90
5055;DHT22;13829;48.990;8.346;2023-08-30T04:33:39;15.40;99.90
5055;DHT22;13829;48.990;8.346;2023-08-30T04:36:06;15.40;99.90
5055;DHT22;13829;48.990;8.346;2023-08-30T04:38:33;15.40;99.90
5055;DHT22;13829;48.990;8.346;2023-08-30T04:41:00;15.40;99.90
5055;DHT22;13829;48.990;8.346;2023-08-30T04:43:28;15.40;99.90
5055;DHT22;13829;48.990;8.346;2023-08-30T04:45:55;15.40;99.90
5055;DHT22;13829;48.990;8.346;2023-08-30T04:48:23;15.40;99.90
5055;DHT22;13829;48.990;8.346;2023-08-30T04:50:58;15.40;99.90
5055;DHT22;13829;48.990;8.346;2023-08-30T04:53:26;15.40;99.90
5055;DHT22;13829;48.990;8.346;2023-08-30T04:55:53;15.40;99.90
5055;DHT22;13829;48.990;8.346;2023-08-30T04:58:20;15.40;99.90
5055;DHT22;13829;48.990;8.346;2023-08-30T05:00:47;15.50;99.90
5055;DHT22;13829;48.990;8.346;2023-08-30T05:03:14;15.50;99.90
5055;DHT22;13829;48.990;8.346;2023-08-30T05:05:46;15.50;99.90
5055;DHT22;13829;48.990;8.346;2023-08-30T05:08:13;15.60;99.90
5055;DHT22;13829;48.990;8.346;2023-08-30T05:10:40;15.60;99.90
5055;DHT22;13829;48.990;8.346;2023-08-30T05:13:08;15.60;99.90
5055;DHT22;13829;48.990;8.346;2023-08-30T05:15:35;15.60;99.90
5055;DHT22;13829;48.990;8.346;2023-08-30T05:18:03;15.70;99.90
5055;DHT22;13829;48.990;8.346;2023-08-30T05:20:31;15.70;99.90
5055;DHT22;13829;48.990;8.346;2023-08-30T05:22:59;15.80;99.90
5055;DHT22;13829;48.990;8.346;2023-08-30T05:25:26;15.90;99.90
5055;DHT22;13829;48.990;8.346;2023-08-30T05:27:53;15.90;99.90
5055;DHT22;13829;48.990;8.346;2023-08-30T05:30:20;16.00;99.90
5055;DHT22;13829;48.990;8.346;2023-08-30T05:32:47;16.00;99.90
5055;DHT22;13829;48.990;8.346;2023-08-30T05:35:14;16.00;99.90
5055;DHT22;13829;48.990;8.346;2023-08-30T05:37:41;16.10;99.90
5055;DHT22;13829;48.990;8.346;2023-08-30T05:40:10;16.10;99.90
5055;DHT22;13829;48.990;8.346;2023-08-30T05:42:40;16.20;99.90
5055;DHT22;13829;48.990;8.346;2023-08-30T05:45:08;16.30;99.90
5055;DHT22;13829;48.990;8.346;2023-08-30T05:47:35;16.30;99.90
5055;DHT22;13829;48.990;8.346;2023-08-30T05:50:02;16.30;99.90
5055;DHT22;13829;48.990;8.346;2023-08-30T05:52:30;16.30;99.90
5055;DHT22;13829;48.990;8.346;2023-08-30T05:54:57;16.40;99.90
5055;DHT22;13829;48.990;8.346;2023-08-30T05:57:25;16.50;99.90
5055;DHT22;13829;48.990;8.346;2023-08-30T05:59:54;16.50;99.90
5055;DHT22;13829;48.990;8.346;2023-08-30T06:02:21;16.50;99.90
5055;DHT22;13829;48.990;8.346;2023-08-30T06:04:48;16.50;99.90
5055;DHT22;13829;48.990;8.346;2023-08-30T06:07:15;16.50;99.90
5055;DHT22;13829;48.990;8.346;2023-08-30T06:09:42;16.60;99.90
5055;DHT22;13829;48.990;8.346;2023-08-30T06:12:09;16.70;99.90
5055;DHT22;13829;48.990;8.346;2023-08-30T06:14:37;16.70;99.90
5055;DHT22;13829;48.990;8.346;2023-08-30T06:17:04;16.80;99.90
5055;DHT22;13829;48.990;8.346;2023-08-30T06:19:31;17.00;99.90
5055;DHT22;13829;48.990;8.346;2023-08-30T06:21:58;17.10;99.90
5055;DHT22;13829;48.990;8.346;2023-08-30T06:24:25;17.20;99.90
5055;DHT22;13829;48.990;8.346;2023-08-30T06:26:52;17.30;99.90
5055;DHT22;13829;48.990;8.346;2023-08-30T06:29:19;17.40;99.90
5055;DHT22;13829;48.990;8.346;2023-08-30T06:31:47;17.40;99.90
5055;DHT22;13829;48.990;8.346;2023-08-30T06:34:14;17.50;99.90
5055;DHT22;13829;48.990;8.346;2023-08-30T06:36:42;17.60;99.90
5055;DHT22;13829;48.990;8.346;2023-08-30T06:39:09;17.80;99.90
5055;DHT22;13829;48.990;8.346;2023-08-30T06:41:35;17.80;99.90
5055;DHT22;13829;48.990;8.346;2023-08-30T06:44:03;18.00;99.90
5055;DHT22;13829;48.990;8.346;2023-08-30T06:46:30;18.00;99.90
5055;DHT22;13829;48.990;8.346;2023-08-30T06:48:58;18.10;99.90
5055;DHT22;13829;48.990;8.346;2023-08-30T06:51:25;18.30;99.90
5055;DHT22;13829;48.990;8.346;2023-08-30T06:53:52;18.40;99.90
5055;DHT22;13829;48.990;8.346;2023-08-30T06:56:20;18.70;99.90
5055;DHT22;13829;48.990;8.346;2023-08-30T06:58:47;19.30;99.90
5055;DHT22;13829;48.990;8.346;2023-08-30T07:01:14;19.70;99.90
5055;DHT22;13829;48.990;8.346;2023-08-30T07:03:41;20.20;99.90
5055;DHT22;13829;48.990;8.346;2023-08-30T07:06:10;20.70;99.90
5055;DHT22;13829;48.990;8.346;2023-08-30T07:08:37;21.00;99.90
5055;DHT22;13829;48.990;8.346;2023-08-30T07:11:05;21.30;99.90
5055;DHT22;13829;48.990;8.346;2023-08-30T07:13:32;21.50;99.90
5055;DHT22;13829;48.990;8.346;2023-08-30T07:15:59;21.90;99.90
5055;DHT22;13829;48.990;8.346;2023-08-30T07:18:26;22.30;99.90
5055;DHT22;13829;48.990;8.346;2023-08-30T07:20:52;22.50;99.90
5055;DHT22;13829;48.990;8.346;2023-08-30T07:23:21;22.80;99.90
5055;DHT22;13829;48.990;8.346;2023-08-30T07:25:48;22.80;99.90
5055;DHT22;13829;48.990;8.346;2023-08-30T07:28:14;22.90;99.90
5055;DHT22;13829;48.990;8.346;2023-08-30T07:30:41;23.20;99.90
5055;DHT22;13829;48.990;8.346;2023-08-30T07:33:08;23.30;99.90
5055;DHT22;13829;48.990;8.346;2023-08-30T07:35:35;23.40;99.90
5055;DHT22;13829;48.990;8.346;2023-08-30T07:38:02;23.50;99.90
5055;DHT22;13829;48.990;8.346;2023-08-30T07:40:31;23.80;99.90
5055;DHT22;13829;48.990;8.346;2023-08-30T07:42:58;23.80;99.70
5055;DHT22;13829;48.990;8.346;2023-08-30T07:45:25;23.80;99.40
5055;DHT22;13829;48.990;8.346;2023-08-30T07:47:52;23.80;99.30
5055;DHT22;13829;48.990;8.346;2023-08-30T07:50:18;24.00;99.30
5055;DHT22;13829;48.990;8.346;2023-08-30T07:52:45;23.80;98.90
5055;DHT22;13829;48.990;8.346;2023-08-30T07:55:13;24.10;99.40
5055;DHT22;13829;48.990;8.346;2023-08-30T07:57:41;24.10;98.60
5055;DHT22;13829;48.990;8.346;2023-08-30T08:00:09;24.00;98.60
5055;DHT22;13829;48.990;8.346;2023-08-30T08:02:37;23.70;98.50
5055;DHT22;13829;48.990;8.346;2023-08-30T08:05:04;23.20;99.40
5055;DHT22;13829;48.990;8.346;2023-08-30T08:07:32;22.90;99.70
5055;DHT22;13829;48.990;8.346;2023-08-30T08:09:59;22.70;99.90
5055;DHT22;13829;48.990;8.346;2023-08-30T08:12:26;22.50;99.90
5055;DHT22;13829;48.990;8.346;2023-08-30T08:14:54;22.80;99.90
5055;DHT22;13829;48.990;8.346;2023-08-30T08:17:21;23.10;99.90
5055;DHT22;13829;48.990;8.346;2023-08-30T08:19:48;23.40;99.80
5055;DHT22;13829;48.990;8.346;2023-08-30T08:22:15;23.40;99.70
5055;DHT22;13829;48.990;8.346;2023-08-30T08:24:42;23.40;99.90
5055;DHT22;13829;48.990;8.346;2023-08-30T08:27:11;23.40;99.70
5055;DHT22;13829;48.990;8.346;2023-08-30T08:29:39;23.50;99.60
5055;DHT22;13829;48.990;8.346;2023-08-30T08:32:08;23.30;99.90
5055;DHT22;13829;48.990;8.346;2023-08-30T08:34:34;23.20;99.90
5055;DHT22;13829;48.990;8.346;2023-08-30T08:37:02;23.40;99.90
5055;DHT22;13829;48.990;8.346;2023-08-30T08:39:30;23.20;99.90
5055;DHT22;13829;48.990;8.346;2023-08-30T08:41:59;23.10;99.90
5055;DHT22;13829;48.990;8.346;2023-08-30T08:44:27;23.10;99.90
5055;DHT22;13829;48.990;8.346;2023-08-30T08:46:58;22.90;99.90
5055;DHT22;13829;48.990;8.346;2023-08-30T08:49:29;22.60;99.90
5055;DHT22;13829;48.990;8.346;2023-08-30T08:51:56;22.50;99.90
5055;DHT22;13829;48.990;8.346;2023-08-30T08:54:24;22.30;99.90
5055;DHT22;13829;48.990;8.346;2023-08-30T08:56:53;21.90;99.90
5055;DHT22;13829;48.990;8.346;2023-08-30T08:59:21;22.10;99.90
5055;DHT22;13829;48.990;8.346;2023-08-30T09:01:48;22.10;99.90
5055;DHT22;13829;48.990;8.346;2023-08-30T09:04:16;22.10;99.90
5055;DHT22;13829;48.990;8.346;2023-08-30T09:06:44;22.20;99.90
5055;DHT22;13829;48.990;8.346;2023-08-30T09:09:13;21.80;99.90
5055;DHT22;13829;48.990;8.346;2023-08-30T09:11:40;21.70;99.90
5055;DHT22;13829;48.990;8.346;2023-08-30T09:14:08;21.70;99.90
5055;DHT22;13829;48.990;8.346;2023-08-30T09:16:36;21.60;99.90
5055;DHT22;13829;48.990;8.346;2023-08-30T09:19:04;21.70;99.90
5055;DHT22;13829;48.990;8.346;2023-08-30T09:21:33;21.70;99.90
5055;DHT22;13829;48.990;8.346;2023-08-30T09:24:02;21.80;99.90
5055;DHT22;13829;48.990;8.346;2023-08-30T09:26:30;21.80;99.90
5055;DHT22;13829;48.990;8.346;2023-08-30T09:29:02;21.90;99.90
5055;DHT22;13829;48.990;8.346;2023-08-30T09:31:33;22.10;99.90
5055;DHT22;13829;48.990;8.346;2023-08-30T09:34:01;22.40;99.90
5055;DHT22;13829;48.990;8.346;2023-08-30T09:36:33;22.20;99.90
5055;DHT22;13829;48.990;8.346;2023-08-30T09:39:05;22.30;99.90
5055;DHT22;13829;48.990;8.346;2023-08-30T09:41:33;22.40;99.90
5055;DHT22;13829;48.990;8.346;2023-08-30T09:44:06;22.60;99.90
5055;DHT22;13829;48.990;8.346;2023-08-30T09:46:41;22.60;99.90
5055;DHT22;13829;48.990;8.346;2023-08-30T09:49:09;22.50;99.90
5055;DHT22;13829;48.990;8.346;2023-08-30T09:51:38;22.40;99.90
5055;DHT22;13829;48.990;8.346;2023-08-30T09:54:14;22.60;99.90
5055;DHT22;13829;48.990;8.346;2023-08-30T09:56:43;22.60;99.90
5055;DHT22;13829;48.990;8.346;2023-08-30T09:59:10;22.40;99.90
5055;DHT22;13829;48.990;8.346;2023-08-30T10:01:38;22.20;99.90
5055;DHT22;13829;48.990;8.346;2023-08-30T10:04:07;22.40;99.90
5055;DHT22;13829;48.990;8.346;2023-08-30T10:06:35;22.10;99.90
5055;DHT22;13829;48.990;8.346;2023-08-30T10:09:03;22.10;99.90
5055;DHT22;13829;48.990;8.346;2023-08-30T10:11:35;22.30;99.90
5055;DHT22;13829;48.990;8.346;2023-08-30T10:14:02;22.50;99.90
5055;DHT22;13829;48.990;8.346;2023-08-30T10:16:40;22.50;99.90
5055;DHT22;13829;48.990;8.346;2023-08-30T10:19:11;22.50;99.90
5055;DHT22;13829;48.990;8.346;2023-08-30T10:21:43;22.30;99.90
5055;DHT22;13829;48.990;8.346;2023-08-30T10:24:14;22.40;99.90
5055;DHT22;13829;48.990;8.346;2023-08-30T10:26:45;22.30;99.90
5055;DHT22;13829;48.990;8.346;2023-08-30T10:29:16;22.30;99.90
5055;DHT22;13829;48.990;8.346;2023-08-30T10:31:45;22.10;99.90
5055;DHT22;13829;48.990;8.346;2023-08-30T10:34:14;22.20;99.90
5055;DHT22;13829;48.990;8.346;2023-08-30T10:36:43;22.10;99.90
5055;DHT22;13829;48.990;8.346;2023-08-30T10:39:14;22.10;99.90
5055;DHT22;13829;48.990;8.346;2023-08-30T10:41:55;21.90;99.90
5055;DHT22;13829;48.990;8.346;2023-08-30T10:44:23;21.90;99.90
5055;DHT22;13829;48.990;8.346;2023-08-30T10:46:52;21.80;99.90
5055;DHT22;13829;48.990;8.346;2023-08-30T10:49:20;21.80;99.90
5055;DHT22;13829;48.990;8.346;2023-08-30T10:51:55;21.60;99.90
5055;DHT22;13829;48.990;8.346;2023-08-30T10:54:23;21.60;99.90
5055;DHT22;13829;48.990;8.346;2023-08-30T10:56:56;21.50;99.90
5055;DHT22;13829;48.990;8.346;2023-08-30T10:59:26;21.60;99.90
5055;DHT22;13829;48.990;8.346;2023-08-30T11:01:55;21.60;99.90
5055;DHT22;13829;48.990;8.346;2023-08-30T11:04:22;21.50;99.90
5055;DHT22;13829;48.990;8.346;2023-08-30T11:06:50;21.70;99.90
5055;DHT22;13829;48.990;8.346;2023-08-30T11:09:22;21.80;99.90
5055;DHT22;13829;48.990;8.346;2023-08-30T11:11:52;21.80;99.90
5055;DHT22;13829;48.990;8.346;2023-08-30T11:14:20;21.70;99.90
5055;DHT22;13829;48.990;8.346;2023-08-30T11:16:47;21.70;99.90
5055;DHT22;13829;48.990;8.346;2023-08-30T11:19:14;21.60;99.90
5055;DHT22;13829;48.990;8.346;2023-08-30T11:21:44;21.60;99.90
5055;DHT22;13829;48.990;8.346;2023-08-30T11:24:11;21.60;99.90
5055;DHT22;13829;48.990;8.346;2023-08-30T11:26:38;21.60;99.90
5055;DHT22;13829;48.990;8.346;2023-08-30T11:29:06;21.60;99.90
5055;DHT22;13829;48.990;8.346;2023-08-30T11:31:35;21.50;99.90
5055;DHT22;13829;48.990;8.346;2023-08-30T11:34:02;21.40;99.90
5055;DHT22;13829;48.990;8.346;2023-08-30T11:36:31;21.50;99.90
5055;DHT22;13829;48.990;8.346;2023-08-30T11:38:58;21.50;99.90
5055;DHT22;13829;48.990;8.346;2023-08-30T11:41:26;21.50;99.90
5055;DHT22;13829;48.990;8.346;2023-08-30T11:43:53;21.70;99.90
5055;DHT22;13829;48.990;8.346;2023-08-30T11:46:21;21.60;99.90
5055;DHT22;13829;48.990;8.346;2023-08-30T11:48:51;21.80;99.90
5055;DHT22;13829;48.990;8.346;2023-08-30T11:51:18;21.60;99.90
5055;DHT22;13829;48.990;8.346;2023-08-30T11:53:46;21.60;99.90
5055;DHT22;13829;48.990;8.346;2023-08-30T11:56:15;21.70;99.90
5055;DHT22;13829;48.990;8.346;2023-08-30T11:58:42;21.80;99.90
5055;DHT22;13829;48.990;8.346;2023-08-30T12:01:09;21.80;99.90
5055;DHT22;13829;48.990;8.346;2023-08-30T12:03:37;21.60;99.90
5055;DHT22;13829;48.990;8.346;2023-08-30T12:06:10;21.70;99.90
5055;DHT22;13829;48.990;8.346;2023-08-30T12:08:37;21.50;99.90
5055;DHT22;13829;48.990;8.346;2023-08-30T12:11:04;21.50;99.90
5055;DHT22;13829;48.990;8.346;2023-08-30T12:13:33;21.70;99.90
5055;DHT22;13829;48.990;8.346;2023-08-30T12:16:01;21.80;99.90
5055;DHT22;13829;48.990;8.346;2023-08-30T12:18:32;21.80;99.90
5055;DHT22;13829;48.990;8.346;2023-08-30T12:21:00;21.70;99.90
5055;DHT22;13829;48.990;8.346;2023-08-30T12:23:30;21.60;99.90
5055;DHT22;13829;48.990;8.346;2023-08-30T12:25:59;21.50;99.90
5055;DHT22;13829;48.990;8.346;2023-08-30T12:28:27;21.50;99.90
5055;DHT22;13829;48.990;8.346;2023-08-30T12:30:55;21.50;99.90
5055;DHT22;13829;48.990;8.346;2023-08-30T12:33:22;21.50;99.90
5055;DHT22;13829;48.990;8.346;2023-08-30T12:35:51;21.40;99.90
5055;DHT22;13829;48.990;8.346;2023-08-30T12:38:18;21.60;99.90
5055;DHT22;13829;48.990;8.346;2023-08-30T12:40:47;21.50;99.90
5055;DHT22;13829;48.990;8.346;2023-08-30T12:43:16;21.70;99.90
5055;DHT22;13829;48.990;8.346;2023-08-30T12:45:44;21.70;99.90
5055;DHT22;13829;48.990;8.346;2023-08-30T12:48:14;21.80;99.90
5055;DHT22;13829;48.990;8.346;2023-08-30T12:50:43;22.00;99.90
5055;DHT22;13829;48.990;8.346;2023-08-30T12:53:11;22.00;99.90
5055;DHT22;13829;48.990;8.346;2023-08-30T12:55:38;22.10;99.90
5055;DHT22;13829;48.990;8.346;2023-08-30T12:58:08;22.10;99.90
5055;DHT22;13829;48.990;8.346;2023-08-30T13:00:35;22.00;99.50
5055;DHT22;13829;48.990;8.346;2023-08-30T13:03:03;22.20;99.90
5055;DHT22;13829;48.990;8.346;2023-08-30T13:05:30;22.10;99.90
5055;DHT22;13829;48.990;8.346;2023-08-30T13:07:57;22.10;99.90
5055;DHT22;13829;48.990;8.346;2023-08-30T13:10:24;22.20;99.90
5055;DHT22;13829;48.990;8.346;2023-08-30T13:12:51;22.20;99.80
5055;DHT22;13829;48.990;8.346;2023-08-30T13:15:20;22.10;99.70
5055;DHT22;13829;48.990;8.346;2023-08-30T13:17:47;22.00;99.90
5055;DHT22;13829;48.990;8.346;2023-08-30T13:20:13;21.90;99.40
5055;DHT22;13829;48.990;8.346;2023-08-30T13:22:40;22.00;99.90
5055;DHT22;13829;48.990;8.346;2023-08-30T13:25:08;22.00;99.90
5055;DHT22;13829;48.990;8.346;2023-08-30T13:27:35;22.10;99.80
5055;DHT22;13829;48.990;8.346;2023-08-30T13:30:02;22.10;99.90
5055;DHT22;13829;48.990;8.346;2023-08-30T13:32:31;22.10;99.90
5055;DHT22;13829;48.990;8.346;2023-08-30T13:34:58;22.10;99.80
5055;DHT22;13829;48.990;8.346;2023-08-30T13:37:25;22.30;99.90
5055;DHT22;13829;48.990;8.346;2023-08-30T13:39:53;22.20;99.90
5055;DHT22;13829;48.990;8.346;2023-08-30T13:42:20;22.20;99.70
5055;DHT22;13829;48.990;8.346;2023-08-30T13:44:50;22.20;99.40
5055;DHT22;13829;48.990;8.346;2023-08-30T13:47:17;22.20;99.60
5055;DHT22;13829;48.990;8.346;2023-08-30T13:49:46;22.30;99.60
5055;DHT22;13829;48.990;8.346;2023-08-30T13:52:13;22.20;99.10
5055;DHT22;13829;48.990;8.346;2023-08-30T13:54:41;22.20;99.20
5055;DHT22;13829;48.990;8.346;2023-08-30T13:57:08;22.30;99.20
5055;DHT22;13829;48.990;8.346;2023-08-30T13:59:35;22.30;99.30
5055;DHT22;13829;48.990;8.346;2023-08-30T14:02:02;22.30;99.00
5055;DHT22;13829;48.990;8.346;2023-08-30T14:04:30;22.30;99.50
5055;DHT22;13829;48.990;8.346;2023-08-30T14:07:00;22.10;99.30
5055;DHT22;13829;48.990;8.346;2023-08-30T14:09:29;22.20;99.70
5055;DHT22;13829;48.990;8.346;2023-08-30T14:11:56;22.20;99.80
5055;DHT22;13829;48.990;8.346;2023-08-30T14:14:23;22.30;99.50
5055;DHT22;13829;48.990;8.346;2023-08-30T14:16:50;22.50;99.20
5055;DHT22;13829;48.990;8.346;2023-08-30T14:19:17;22.60;99.90
5055;DHT22;13829;48.990;8.346;2023-08-30T14:21:44;22.80;99.50
5055;DHT22;13829;48.990;8.346;2023-08-30T14:24:12;23.00;99.00
5055;DHT22;13829;48.990;8.346;2023-08-30T14:26:40;23.10;99.30
5055;DHT22;13829;48.990;8.346;2023-08-30T14:29:06;23.20;99.00
5055;DHT22;13829;48.990;8.346;2023-08-30T14:31:33;23.10;98.20
5055;DHT22;13829;48.990;8.346;2023-08-30T14:34:00;22.90;98.60
5055;DHT22;13829;48.990;8.346;2023-08-30T14:36:27;22.80;98.20
5055;DHT22;13829;48.990;8.346;2023-08-30T14:38:55;22.40;98.70
5055;DHT22;13829;48.990;8.346;2023-08-30T14:41:23;22.40;99.50
5055;DHT22;13829;48.990;8.346;2023-08-30T14:43:50;22.30;99.50
5055;DHT22;13829;48.990;8.346;2023-08-30T14:46:17;22.40;99.40
5055;DHT22;13829;48.990;8.346;2023-08-30T14:48:45;22.60;99.30
5055;DHT22;13829;48.990;8.346;2023-08-30T14:51:12;22.80;99.10
5055;DHT22;13829;48.990;8.346;2023-08-30T14:53:39;23.00;99.00
5055;DHT22;13829;48.990;8.346;2023-08-30T14:56:06;23.10;98.60
5055;DHT22;13829;48.990;8.346;2023-08-30T14:58:34;23.10;98.30
5055;DHT22;13829;48.990;8.346;2023-08-30T15:01:02;22.90;98.40
5055;DHT22;13829;48.990;8.346;2023-08-30T15:03:29;22.80;98.10
5055;DHT22;13829;48.990;8.346;2023-08-30T15:05:56;22.70;98.90
5055;DHT22;13829;48.990;8.346;2023-08-30T15:08:24;22.70;98.80
5055;DHT22;13829;48.990;8.346;2023-08-30T15:10:51;22.60;98.20
5055;DHT22;13829;48.990;8.346;2023-08-30T15:13:19;22.50;98.40
5055;DHT22;13829;48.990;8.346;2023-08-30T15:15:49;22.50;98.60
5055;DHT22;13829;48.990;8.346;2023-08-30T15:18:16;22.40;98.60
5055;DHT22;13829;48.990;8.346;2023-08-30T15:20:43;22.40;98.80
5055;DHT22;13829;48.990;8.346;2023-08-30T15:23:12;22.40;99.00
5055;DHT22;13829;48.990;8.346;2023-08-30T15:25:44;22.20;99.10
5055;DHT22;13829;48.990;8.346;2023-08-30T15:28:12;22.20;99.50
5055;DHT22;13829;48.990;8.346;2023-08-30T15:30:41;22.20;99.30
5055;DHT22;13829;48.990;8.346;2023-08-30T15:33:11;22.20;99.90
5055;DHT22;13829;48.990;8.346;2023-08-30T15:35:38;22.20;99.10
5055;DHT22;13829;48.990;8.346;2023-08-30T15:38:06;22.10;99.40
5055;DHT22;13829;48.990;8.346;2023-08-30T15:40:33;22.30;99.50
5055;DHT22;13829;48.990;8.346;2023-08-30T15:43:01;22.30;99.20
5055;DHT22;13829;48.990;8.346;2023-08-30T15:45:28;22.20;98.90
5055;DHT22;13829;48.990;8.346;2023-08-30T15:47:56;22.30;99.00
5055;DHT22;13829;48.990;8.346;2023-08-30T15:50:24;22.10;98.30